Time;durP1;ratioP1;P1;durP2;ratioP2;P2;SDS_P1;SDS_P2;PMS_P1;PMS_P2;Temp;Humidity;BMP_temperature;BMP_pressure;BME280_temperature;BME280_humidity;BME280_pressure;Samples;Min_cycle;Max_cycle;Signal;HPM_P1;HPM_P2
2022/08/07 00:00:28;;;;;;;15.18;9.15;;;10.60;91.10;;;;;;5025257;28;20037;-70
2022/08/07 00:02:55;;;;;;;17.35;9.25;;;10.60;91.30;;;;;;5023574;28;20026;-70
2022/08/07 00:05:21;;;;;;;14.98;9.13;;;10.60;91.60;;;;;;5024661;28;20056;-70
2022/08/07 00:07:47;;;;;;;13.98;8.40;;;10.50;91.40;;;;;;5025920;28;20107;-70
2022/08/07 00:10:13;;;;;;;14.52;8.02;;;10.40;91.10;;;;;;5027219;28;20057;-70
2022/08/07 00:12:38;;;;;;;13.82;7.65;;;10.40;91.20;;;;;;5028782;28;20029;-70
2022/08/07 00:15:04;;;;;;;13.52;7.95;;;10.40;90.90;;;;;;5024416;28;20047;-70
2022/08/07 00:17:30;;;;;;;13.88;8.73;;;10.40;90.70;;;;;;5017567;28;20038;-70
2022/08/07 00:19:55;;;;;;;16.58;9.13;;;10.40;91.30;;;;;;5026965;28;20173;-70
2022/08/07 00:22:21;;;;;;;13.05;8.23;;;10.40;91.80;;;;;;5026374;28;20469;-70
2022/08/07 00:24:46;;;;;;;15.52;9.07;;;10.40;91.80;;;;;;5023360;28;20037;-70
2022/08/07 00:27:12;;;;;;;14.70;9.07;;;10.40;92.10;;;;;;5024276;28;20037;-70
2022/08/07 00:29:37;;;;;;;14.35;9.32;;;10.40;92.30;;;;;;5028391;28;20043;-70
2022/08/07 00:32:05;;;;;;;18.33;10.45;;;10.30;92.40;;;;;;5025495;28;20530;-70
2022/08/07 00:34:31;;;;;;;17.20;8.95;;;10.30;92.40;;;;;;5024111;28;20033;-70
2022/08/07 00:36:56;;;;;;;14.82;8.15;;;10.30;92.30;;;;;;5024899;28;20083;-70
2022/08/07 00:39:22;;;;;;;15.18;9.38;;;10.20;92.10;;;;;;5027523;28;20128;-70
2022/08/07 00:41:52;;;;;;;14.93;8.90;;;10.20;91.90;;;;;;5024138;28;20029;-70
2022/08/07 00:44:18;;;;;;;13.57;8.98;;;10.10;92.20;;;;;;5026365;28;20038;-70
2022/08/07 00:46:44;;;;;;;14.52;8.70;;;10.10;92.30;;;;;;5021522;28;20034;-70
2022/08/07 00:49:09;;;;;;;15.63;9.38;;;10.10;92.30;;;;;;5022950;28;20037;-70
2022/08/07 00:51:35;;;;;;;15.40;8.00;;;10.10;92.30;;;;;;5026751;28;20075;-70
2022/08/07 00:54:01;;;;;;;15.55;8.48;;;10.00;92.20;;;;;;5023929;28;20029;-70
2022/08/07 00:56:27;;;;;;;13.90;8.73;;;10.10;92.10;;;;;;5027605;28;20045;-70
2022/08/07 00:58:53;;;;;;;13.85;8.23;;;10.00;92.00;;;;;;5023040;28;20026;-70
2022/08/07 01:01:19;;;;;;;12.95;8.35;;;9.90;92.00;;;;;;5023954;28;20038;-70
2022/08/07 01:03:45;;;;;;;17.63;9.13;;;9.90;92.00;;;;;;5025417;28;20457;-70
2022/08/07 01:06:11;;;;;;;16.20;8.88;;;9.90;92.10;;;;;;5021512;28;20283;-70
2022/08/07 01:08:38;;;;;;;14.27;9.02;;;9.90;92.20;;;;;;5026770;28;20470;-70
2022/08/07 01:11:04;;;;;;;14.40;9.23;;;9.80;92.20;;;;;;5027962;28;20113;-70
2022/08/07 01:13:30;;;;;;;15.23;8.65;;;9.80;92.30;;;;;;5018872;28;20433;-70
2022/08/07 01:15:57;;;;;;;14.85;9.50;;;9.80;92.60;;;;;;5028333;28;20037;-70
2022/08/07 01:18:23;;;;;;;15.98;8.82;;;9.70;92.70;;;;;;5026170;28;20060;-70
2022/08/07 01:21:10;;;;;;;18.63;9.48;;;9.70;92.80;;;;;;5024397;28;20041;-70
2022/08/07 01:23:37;;;;;;;14.80;9.15;;;9.70;92.70;;;;;;5025518;28;20037;-70
2022/08/07 01:26:03;;;;;;;14.93;9.27;;;9.70;92.70;;;;;;5018119;28;20025;-70
2022/08/07 01:28:29;;;;;;;15.85;9.57;;;9.70;92.80;;;;;;5026386;28;20025;-70
2022/08/07 01:30:55;;;;;;;15.15;9.35;;;9.60;92.90;;;;;;5029161;28;20438;-70
2022/08/07 01:33:22;;;;;;;13.85;8.80;;;9.60;93.00;;;;;;5027669;28;20034;-70
2022/08/07 01:35:48;;;;;;;15.77;9.55;;;9.60;93.10;;;;;;5032155;28;20068;-70
2022/08/07 01:38:13;;;;;;;15.43;9.18;;;9.50;93.10;;;;;;5027113;28;20532;-70
2022/08/07 01:40:40;;;;;;;20.08;9.55;;;9.50;93.00;;;;;;5018246;28;20057;-70
2022/08/07 01:43:06;;;;;;;17.40;8.25;;;9.50;93.60;;;;;;5032873;28;20112;-70
2022/08/07 01:45:32;;;;;;;14.15;8.70;;;9.50;93.70;;;;;;5019231;28;20104;-70
2022/08/07 01:47:58;;;;;;;15.20;8.48;;;9.40;93.80;;;;;;5031429;28;20440;-70
2022/08/07 01:50:26;;;;;;;13.77;7.80;;;9.40;93.40;;;;;;5028082;28;20026;-70
2022/08/07 01:52:54;;;;;;;12.07;7.75;;;9.30;93.10;;;;;;5021488;28;20030;-70
2022/08/07 01:55:25;;;;;;;15.02;8.25;;;9.30;92.80;;;;;;5028007;28;20457;-70
2022/08/07 01:57:53;;;;;;;14.10;8.98;;;9.30;92.90;;;;;;5028736;28;20107;-70
2022/08/07 02:00:19;;;;;;;14.48;7.90;;;9.30;93.00;;;;;;5022962;28;20040;-70
2022/08/07 02:02:52;;;;;;;14.48;8.55;;;9.20;93.10;;;;;;5027763;28;20037;-70
2022/08/07 02:05:25;;;;;;;14.35;8.55;;;9.10;93.60;;;;;;5031174;28;20044;-70
2022/08/07 02:07:53;;;;;;;14.63;8.50;;;9.20;94.30;;;;;;5030367;28;20025;-70
2022/08/07 02:10:25;;;;;;;14.82;8.60;;;9.10;94.40;;;;;;5027028;28;20191;-70
2022/08/07 02:12:53;;;;;;;16.60;8.75;;;9.00;94.20;;;;;;5025474;28;20104;-70
2022/08/07 02:15:23;;;;;;;17.90;8.95;;;9.10;94.10;;;;;;5030221;28;20029;-70
2022/08/07 02:17:50;;;;;;;13.80;8.18;;;9.00;94.10;;;;;;5029930;28;20125;-70
2022/08/07 02:20:17;;;;;;;13.65;7.85;;;9.00;93.80;;;;;;5026111;28;20037;-70
2022/08/07 02:22:45;;;;;;;16.40;8.80;;;9.00;93.70;;;;;;5030338;28;20109;-70
2022/08/07 02:25:12;;;;;;;16.52;9.25;;;9.10;93.90;;;;;;5026933;28;20029;-70
2022/08/07 02:27:40;;;;;;;14.40;8.85;;;9.10;93.90;;;;;;5029411;28;20068;-70
2022/08/07 02:30:06;;;;;;;14.95;8.43;;;9.00;93.80;;;;;;5026340;28;20033;-70
2022/08/07 02:32:35;;;;;;;15.48;8.68;;;9.00;93.80;;;;;;5028599;28;20091;-70
2022/08/07 02:35:03;;;;;;;14.55;9.27;;;9.00;93.90;;;;;;5023953;28;20052;-70
2022/08/07 02:37:31;;;;;;;16.77;8.82;;;8.90;93.80;;;;;;5024976;28;20098;-70
2022/08/07 02:39:58;;;;;;;13.18;7.68;;;8.90;93.60;;;;;;5018429;28;20029;-71
2022/08/07 02:42:23;;;;;;;17.42;9.52;;;8.90;93.40;;;;;;5025820;28;20116;-70
2022/08/07 02:44:51;;;;;;;14.75;8.60;;;8.90;93.50;;;;;;5027212;28;20143;-70
2022/08/07 02:47:17;;;;;;;15.90;9.07;;;8.90;93.40;;;;;;5029074;28;20021;-70
2022/08/07 02:49:43;;;;;;;16.42;8.50;;;8.90;93.50;;;;;;5026664;28;20029;-70
2022/08/07 02:52:14;;;;;;;15.48;8.30;;;8.80;93.30;;;;;;5024427;28;20063;-70
2022/08/07 02:54:40;;;;;;;17.65;8.60;;;8.80;93.30;;;;;;5026128;28;20041;-70
2022/08/07 02:57:09;;;;;;;14.25;8.63;;;8.80;93.40;;;;;;5020101;28;20136;-70
2022/08/07 02:59:35;;;;;;;16.35;8.60;;;8.80;93.60;;;;;;5025028;28;20034;-70
2022/08/07 03:02:02;;;;;;;16.55;9.48;;;8.80;93.80;;;;;;5025844;28;20040;-70
2022/08/07 03:04:28;;;;;;;17.83;9.52;;;8.80;94.00;;;;;;5026094;28;20044;-70
2022/08/07 03:06:54;;;;;;;16.85;9.38;;;8.80;94.00;;;;;;5029070;28;20104;-70
2022/08/07 03:09:20;;;;;;;18.55;9.30;;;8.80;94.20;;;;;;5028302;28;20033;-70
2022/08/07 03:11:46;;;;;;;17.70;9.23;;;8.80;94.30;;;;;;5029511;28;20375;-70
2022/08/07 03:14:13;;;;;;;17.70;9.15;;;8.80;94.40;;;;;;5029140;28;20036;-70
2022/08/07 03:16:39;;;;;;;18.60;9.95;;;8.80;94.40;;;;;;5027218;28;20029;-70
2022/08/07 03:19:06;;;;;;;17.27;9.10;;;8.80;94.20;;;;;;5026922;28;20034;-70
2022/08/07 03:21:32;;;;;;;16.10;9.30;;;8.70;93.90;;;;;;5029232;28;20056;-70
2022/08/07 03:23:59;;;;;;;15.95;9.40;;;8.70;93.70;;;;;;5028297;28;20572;-70
2022/08/07 03:26:27;;;;;;;18.15;9.98;;;8.70;93.90;;;;;;5026656;28;20029;-70
2022/08/07 03:28:54;;;;;;;20.60;9.18;;;8.70;94.10;;;;;;5025736;28;20473;-70
2022/08/07 03:31:21;;;;;;;16.17;8.63;;;8.70;94.10;;;;;;5023317;28;20040;-70
2022/08/07 03:33:49;;;;;;;17.70;9.60;;;8.70;94.00;;;;;;5023450;28;20033;-70
2022/08/07 03:36:17;;;;;;;16.33;9.48;;;8.70;94.10;;;;;;5023421;28;20368;-70
2022/08/07 03:38:45;;;;;;;15.55;9.40;;;8.60;94.10;;;;;;5025577;28;20065;-70
2022/08/07 03:41:11;;;;;;;17.80;8.98;;;8.60;94.00;;;;;;5029067;28;20537;-70
2022/08/07 03:43:37;;;;;;;17.30;9.48;;;8.60;93.90;;;;;;5025088;28;20758;-70
2022/08/07 03:46:05;;;;;;;19.13;9.35;;;8.60;93.90;;;;;;5022085;28;20508;-70
2022/08/07 03:48:32;;;;;;;15.68;9.60;;;8.70;94.20;;;;;;5025480;28;20037;-70
2022/08/07 03:50:58;;;;;;;16.92;9.27;;;8.70;94.30;;;;;;5027220;28;20496;-70
2022/08/07 03:53:25;;;;;;;21.08;9.98;;;8.70;94.30;;;;;;5028134;28;20056;-70
2022/08/07 03:55:51;;;;;;;18.70;9.50;;;8.60;94.20;;;;;;5029202;28;20026;-70
2022/08/07 03:58:20;;;;;;;16.58;9.13;;;8.60;94.20;;;;;;5025054;28;20045;-70
2022/08/07 04:00:48;;;;;;;15.15;8.70;;;8.60;94.10;;;;;;5023404;28;20053;-70
2022/08/07 04:03:15;;;;;;;16.52;8.90;;;8.70;94.20;;;;;;5026188;28;20057;-70
2022/08/07 04:05:40;;;;;;;15.68;8.68;;;8.70;94.20;;;;;;5026816;28;20025;-70
2022/08/07 04:08:10;;;;;;;13.68;8.02;;;8.60;94.00;;;;;;5029071;28;20029;-70
2022/08/07 04:10:35;;;;;;;14.57;8.82;;;8.70;94.10;;;;;;5025783;28;20373;-70
2022/08/07 04:13:02;;;;;;;17.63;9.43;;;8.70;94.10;;;;;;5027400;28;20030;-70
2022/08/07 04:15:28;;;;;;;17.17;8.48;;;8.70;94.20;;;;;;5025390;28;20477;-70
2022/08/07 04:17:54;;;;;;;13.23;8.35;;;8.70;94.00;;;;;;5025418;28;20037;-69
2022/08/07 04:20:20;;;;;;;16.20;9.10;;;8.70;93.90;;;;;;5025649;28;20039;-70
2022/08/07 04:22:48;;;;;;;15.73;9.77;;;8.80;94.00;;;;;;5028138;28;20029;-69
2022/08/07 04:25:14;;;;;;;17.92;9.73;;;8.80;94.00;;;;;;5028581;28;20044;-69
2022/08/07 04:27:40;;;;;;;18.23;9.77;;;8.80;94.00;;;;;;5028809;28;20026;-69
2022/08/07 04:30:07;;;;;;;16.88;10.00;;;8.90;94.20;;;;;;5026045;28;20033;-70
2022/08/07 04:32:33;;;;;;;16.52;9.27;;;8.90;94.50;;;;;;5025025;28;22336;-69
2022/08/07 04:35:04;;;;;;;15.57;8.60;;;8.90;94.40;;;;;;5026645;28;20021;-69
2022/08/07 04:37:31;;;;;;;19.95;9.45;;;9.00;94.60;;;;;;5028318;28;20049;-70
2022/08/07 04:39:57;;;;;;;16.55;8.93;;;9.10;94.80;;;;;;5026713;28;20037;-70
2022/08/07 04:42:26;;;;;;;15.45;9.23;;;9.00;94.60;;;;;;5025660;28;20040;-70
2022/08/07 04:44:54;;;;;;;15.45;8.63;;;9.00;94.40;;;;;;5029390;28;20038;-69
2022/08/07 04:47:40;;;;;;;20.35;10.43;;;9.10;94.50;;;;;;5022862;28;20064;-69
2022/08/07 04:50:16;;;;;;;17.13;9.30;;;9.20;94.70;;;;;;5026713;28;20032;-69
2022/08/07 04:53:01;;;;;;;18.38;9.80;;;9.20;94.70;;;;;;5027093;28;20021;-69
2022/08/07 04:55:35;;;;;;;18.85;9.60;;;9.30;94.70;;;;;;5016258;28;20381;-69
2022/08/07 04:58:16;;;;;;;15.90;9.05;;;9.40;94.70;;;;;;5016579;28;20088;-69
2022/08/07 05:01:01;;;;;;;15.93;9.15;;;9.40;94.70;;;;;;5025756;28;20037;-69
2022/08/07 05:03:40;;;;;;;19.88;9.82;;;9.40;94.60;;;;;;5014434;28;20057;-69
2022/08/07 05:06:11;;;;;;;16.27;9.38;;;9.50;94.60;;;;;;5018364;28;20136;-69
2022/08/07 05:08:46;;;;;;;;;;;9.60;94.80;;;;;;5026290;28;20083;-69
2022/08/07 05:11:29;;;;;;;16.00;8.63;;;9.60;94.80;;;;;;5028166;28;20390;-69
2022/08/07 05:14:01;;;;;;;19.25;9.93;;;9.70;94.90;;;;;;5026960;28;20033;-69
2022/08/07 05:16:30;;;;;;;16.60;9.23;;;9.70;95.10;;;;;;5029864;28;20048;-69
2022/08/07 05:19:07;;;;;;;15.57;9.15;;;9.80;95.00;;;;;;5029698;28;20041;-69
2022/08/07 05:21:35;;;;;;;17.75;9.52;;;9.90;95.10;;;;;;5024358;28;20116;-69
2022/08/07 05:24:03;;;;;;;18.00;10.13;;;10.00;95.10;;;;;;5024382;28;20080;-69
2022/08/07 05:26:32;;;;;;;19.48;9.73;;;10.10;95.20;;;;;;5029483;28;20021;-69
2022/08/07 05:29:00;;;;;;;19.70;9.70;;;10.10;95.30;;;;;;5029622;28;20481;-69
2022/08/07 05:31:32;;;;;;;21.60;10.80;;;10.20;95.40;;;;;;5026138;28;20128;-68
2022/08/07 05:33:59;;;;;;;18.67;10.20;;;10.30;95.60;;;;;;5016878;28;20029;-68
2022/08/07 05:36:27;;;;;;;19.65;11.00;;;10.50;95.70;;;;;;5030446;28;20026;-68
2022/08/07 05:38:53;;;;;;;24.73;11.38;;;10.60;95.50;;;;;;5031116;28;20060;-69
2022/08/07 05:41:19;;;;;;;20.80;10.38;;;10.70;95.70;;;;;;5028407;28;20021;-68
2022/08/07 05:43:49;;;;;;;20.25;10.52;;;10.90;95.90;;;;;;5020045;28;20049;-68
2022/08/07 05:46:19;;;;;;;19.92;10.50;;;11.00;96.00;;;;;;5028901;28;20022;-69
2022/08/07 05:48:45;;;;;;;24.50;11.47;;;11.20;96.10;;;;;;5018366;28;20033;-68
2022/08/07 05:51:13;;;;;;;24.60;11.70;;;11.30;96.30;;;;;;5030906;28;20017;-68
2022/08/07 05:53:41;;;;;;;24.50;11.55;;;11.50;96.20;;;;;;5026659;28;20034;-69
2022/08/07 05:56:08;;;;;;;25.00;11.88;;;11.50;96.10;;;;;;5023851;28;20048;-69
2022/08/07 05:58:37;;;;;;;23.48;11.43;;;11.70;96.10;;;;;;5026920;28;20574;-69
2022/08/07 06:01:06;;;;;;;24.83;11.80;;;11.90;96.10;;;;;;5025235;28;20052;-68
2022/08/07 06:03:33;;;;;;;25.58;11.45;;;12.10;96.00;;;;;;5027144;28;20646;-68
2022/08/07 06:05:59;;;;;;;23.55;11.20;;;12.30;95.60;;;;;;5028922;28;20029;-68
2022/08/07 06:08:26;;;;;;;19.92;10.52;;;12.50;95.20;;;;;;5024342;28;20040;-69
2022/08/07 06:10:52;;;;;;;24.35;11.02;;;12.70;94.90;;;;;;5023879;28;20032;-69
2022/08/07 06:13:17;;;;;;;17.42;10.07;;;12.90;94.10;;;;;;5028174;28;20033;-69
2022/08/07 06:15:44;;;;;;;19.83;10.23;;;13.10;93.70;;;;;;5029566;28;20068;-69
2022/08/07 06:18:12;;;;;;;17.23;10.30;;;13.30;93.60;;;;;;5023363;28;20033;-69
2022/08/07 06:20:39;;;;;;;16.33;9.32;;;13.30;93.10;;;;;;5026871;28;20052;-69
2022/08/07 06:23:07;;;;;;;12.70;7.32;;;13.40;92.80;;;;;;5027234;28;20053;-69
2022/08/07 06:25:33;;;;;;;10.95;7.72;;;13.50;92.10;;;;;;5023954;28;20083;-69
2022/08/07 06:28:10;;;;;;;12.07;6.80;;;13.70;91.70;;;;;;5028000;28;20405;-69
2022/08/07 06:30:37;;;;;;;10.48;6.60;;;13.80;89.40;;;;;;5028945;28;20135;-69
2022/08/07 06:33:04;;;;;;;10.32;5.20;;;14.00;89.30;;;;;;5029958;28;20057;-69
2022/08/07 06:35:30;;;;;;;11.60;5.53;;;14.10;88.80;;;;;;5024323;28;20417;-69
2022/08/07 06:37:57;;;;;;;11.23;5.75;;;14.30;87.70;;;;;;5030111;28;20041;-69
2022/08/07 06:40:23;;;;;;;9.68;4.75;;;14.40;88.00;;;;;;5027269;28;20384;-69
2022/08/07 06:42:51;;;;;;;11.63;5.40;;;14.60;86.40;;;;;;5026628;28;20036;-69
2022/08/07 06:45:19;;;;;;;8.95;4.80;;;14.70;86.20;;;;;;5023039;28;20084;-69
2022/08/07 06:47:46;;;;;;;8.00;5.13;;;14.80;86.00;;;;;;5026736;28;20041;-69
2022/08/07 06:50:12;;;;;;;7.10;4.93;;;14.90;84.90;;;;;;5021862;28;20033;-69
2022/08/07 06:52:41;;;;;;;7.22;4.63;;;15.10;85.20;;;;;;5012197;28;20049;-69
2022/08/07 06:55:18;;;;;;;6.90;4.40;;;15.20;84.70;;;;;;5027542;28;20420;-68
2022/08/07 06:57:44;;;;;;;7.63;3.67;;;15.30;84.70;;;;;;5028287;28;20040;-69
2022/08/07 07:00:11;;;;;;;5.88;3.80;;;15.40;83.80;;;;;;5024121;28;20064;-69
2022/08/07 07:02:38;;;;;;;5.85;3.47;;;15.50;83.30;;;;;;5020863;28;20069;-69
2022/08/07 07:05:04;;;;;;;8.15;3.65;;;15.60;81.40;;;;;;5020608;28;20029;-69
2022/08/07 07:07:29;;;;;;;7.38;3.42;;;15.70;81.00;;;;;;5016612;28;20600;-69
2022/08/07 07:09:55;;;;;;;6.45;3.58;;;15.90;80.60;;;;;;5026875;28;20049;-69
2022/08/07 07:12:38;;;;;;;6.00;3.47;;;16.00;80.70;;;;;;5022248;28;20030;-69
2022/08/07 07:15:28;;;;;;;8.50;3.33;;;16.10;79.70;;;;;;5016820;28;20026;-69
2022/08/07 07:18:13;;;;;;;7.75;3.53;;;16.20;79.70;;;;;;5026400;28;20537;-69
2022/08/07 07:20:51;;;;;;;8.27;3.70;;;16.30;79.60;;;;;;5027427;28;20429;-69
2022/08/07 07:23:17;;;;;;;8.02;3.70;;;16.40;77.10;;;;;;5020734;28;20095;-69
2022/08/07 07:25:44;;;;;;;6.07;3.70;;;16.50;76.10;;;;;;5022157;28;20021;-69
2022/08/07 07:28:23;;;;;;;7.07;3.88;;;16.60;76.00;;;;;;5021709;28;20037;-69
2022/08/07 07:30:59;;;;;;;7.10;4.03;;;16.70;74.50;;;;;;5029195;28;20101;-69
2022/08/07 07:33:27;;;;;;;9.07;3.60;;;16.70;74.90;;;;;;5026820;28;20384;-69
2022/08/07 07:35:55;;;;;;;6.97;4.22;;;16.90;74.40;;;;;;5025138;28;20061;-69
2022/08/07 07:38:24;;;;;;;7.28;4.00;;;17.10;75.70;;;;;;5025825;28;20110;-69
2022/08/07 07:40:53;;;;;;;7.80;4.28;;;17.20;74.10;;;;;;5026277;28;20033;-69
2022/08/07 07:43:21;;;;;;;7.60;3.90;;;17.40;74.20;;;;;;5020178;28;20037;-69
2022/08/07 07:45:48;;;;;;;6.97;3.70;;;17.60;74.60;;;;;;5031010;28;20022;-70
2022/08/07 07:48:18;;;;;;;11.95;4.50;;;17.60;72.10;;;;;;5026484;28;20029;-69
2022/08/07 07:50:47;;;;;;;7.15;3.83;;;17.70;69.20;;;;;;5022909;28;20053;-69
2022/08/07 07:53:16;;;;;;;7.45;4.47;;;17.90;70.20;;;;;;5024824;28;20029;-69
2022/08/07 07:55:42;;;;;;;6.65;4.20;;;18.00;69.60;;;;;;5021339;28;20032;-69
2022/08/07 07:58:08;;;;;;;11.38;4.13;;;18.00;67.00;;;;;;5022459;28;20033;-69
2022/08/07 08:00:34;;;;;;;7.78;4.40;;;18.10;66.20;;;;;;5028706;28;20017;-69
2022/08/07 08:03:09;;;;;;;5.35;3.63;;;18.10;65.70;;;;;;5026271;28;20380;-69
2022/08/07 08:05:42;;;;;;;7.43;4.05;;;18.20;65.10;;;;;;5022216;28;20034;-69
2022/08/07 08:08:10;;;;;;;5.72;3.58;;;18.30;64.40;;;;;;5023195;28;20417;-69
2022/08/07 08:10:37;;;;;;;7.03;3.70;;;18.50;65.30;;;;;;5027893;28;20491;-69
2022/08/07 08:13:04;;;;;;;8.05;3.72;;;18.50;64.40;;;;;;5024468;28;20055;-69
2022/08/07 08:15:34;;;;;;;6.18;4.00;;;18.50;63.70;;;;;;5030003;28;20040;-69
2022/08/07 08:18:01;;;;;;;7.95;4.30;;;18.90;65.60;;;;;;5027737;28;20120;-69
2022/08/07 08:20:30;;;;;;;8.07;3.83;;;19.10;63.80;;;;;;5026301;28;20032;-69
2022/08/07 08:28:28;;;;;;;6.50;3.88;;;19.10;61.20;;;;;;5023192;28;20091;-69
2022/08/07 08:30:59;;;;;;;5.90;3.30;;;19.40;63.10;;;;;;5024724;28;20067;-69
2022/08/07 08:33:28;;;;;;;6.45;3.85;;;19.30;60.60;;;;;;5024954;28;20021;-69
2022/08/07 08:35:55;;;;;;;8.02;3.78;;;19.40;61.20;;;;;;5029058;28;20087;-69
2022/08/07 08:38:24;;;;;;;6.68;3.83;;;19.40;58.90;;;;;;5015349;28;20379;-69
2022/08/07 08:41:02;;;;;;;8.38;3.38;;;19.60;60.10;;;;;;5025258;28;20055;-69
2022/08/07 08:44:04;;;;;;;7.38;3.50;;;19.70;61.40;;;;;;5026114;28;20026;-69
2022/08/07 08:46:56;;;;;;;6.68;3.53;;;19.40;59.00;;;;;;5019644;28;20575;-69
2022/08/07 08:50:06;;;;;;;6.70;3.50;;;19.50;58.50;;;;;;5026208;28;20033;-69
2022/08/07 08:52:36;;;;;;;6.45;3.22;;;19.70;59.10;;;;;;5027257;28;20040;-69
2022/08/07 08:55:08;;;;;;;5.45;3.40;;;19.70;59.20;;;;;;5014875;28;20037;-69
2022/08/07 08:57:41;;;;;;;8.45;3.70;;;20.00;58.40;;;;;;5026447;28;20095;-69
2022/08/07 09:00:08;;;;;;;5.90;3.35;;;19.80;60.20;;;;;;5023426;28;20017;-69
2022/08/07 09:02:45;;;;;;;5.53;3.63;;;20.20;57.00;;;;;;5016368;28;20527;-69
2022/08/07 09:05:45;;;;;;;7.05;3.38;;;20.00;56.30;;;;;;5019463;28;20034;-69
2022/08/07 09:08:29;;;;;;;4.95;3.25;;;19.90;56.00;;;;;;5020311;28;20017;-69
2022/08/07 09:11:14;;;;;;;6.78;3.30;;;20.00;56.80;;;;;;5018576;28;20151;-69
2022/08/07 09:14:05;;;;;;;5.88;3.20;;;20.10;57.10;;;;;;5023646;28;20037;-72
2022/08/07 09:16:46;;;;;;;7.20;4.40;;;20.10;55.50;;;;;;5023252;28;20037;-69
2022/08/07 09:19:39;;;;;;;7.22;3.80;;;20.30;58.60;;;;;;5026035;28;20816;-69
2022/08/07 09:22:20;;;;;;;7.75;3.50;;;20.70;55.70;;;;;;5016037;28;20117;-69
2022/08/07 09:24:46;;;;;;;;;;;21.00;56.60;;;;;;5017329;28;20025;-69
2022/08/07 09:27:49;;;;;;;5.18;3.45;;;21.00;56.40;;;;;;5027256;28;19944;-71
2022/08/07 09:30:16;;;;;;;8.07;3.28;;;21.40;56.30;;;;;;5024049;28;20040;-71
2022/08/07 09:33:21;;;;;;;6.35;3.92;;;21.20;54.70;;;;;;5026019;28;20059;-70
2022/08/07 09:36:10;;;;;;;6.03;3.35;;;21.50;54.20;;;;;;5025872;28;20021;-70
2022/08/07 09:39:07;;;;;;;6.05;3.97;;;21.50;54.50;;;;;;5016855;28;20056;-70
2022/08/07 09:42:10;;;;;;;6.88;3.30;;;21.00;55.00;;;;;;5026921;28;20040;-70
2022/08/07 09:44:46;;;;;;;8.23;3.58;;;20.80;54.90;;;;;;5027177;28;20041;-70
2022/08/07 09:47:26;;;;;;;7.75;3.75;;;21.40;57.20;;;;;;5022951;28;20053;-69
2022/08/07 09:50:18;;;;;;;5.73;3.17;;;21.70;54.50;;;;;;5017941;28;20031;-70
2022/08/07 09:53:03;;;;;;;5.18;3.30;;;22.00;53.70;;;;;;5014667;28;20042;-70
2022/08/07 09:55:40;;;;;;;7.13;3.40;;;21.90;53.00;;;;;;5020525;28;20045;-69
2022/08/07 09:58:09;;;;;;;7.07;3.85;;;22.00;53.00;;;;;;5027490;28;20527;-69
2022/08/07 10:01:02;;;;;;;5.03;3.15;;;21.90;53.20;;;;;;5016725;28;20026;-69
2022/08/07 10:03:40;;;;;;;5.85;3.13;;;22.00;52.00;;;;;;5027144;28;20026;-69
2022/08/07 10:06:30;;;;;;;5.72;3.30;;;22.30;52.10;;;;;;5030777;28;20037;-69
2022/08/07 10:09:15;;;;;;;6.18;3.80;;;22.60;51.30;;;;;;5025138;28;20377;-70
2022/08/07 10:11:54;;;;;;;5.88;3.65;;;22.80;52.00;;;;;;5027842;28;20388;-70
2022/08/07 10:14:41;;;;;;;5.03;3.10;;;23.00;50.50;;;;;;5028709;28;20659;-70
2022/08/07 10:17:38;;;;;;;5.47;3.42;;;22.90;50.40;;;;;;5027688;28;20506;-70
2022/08/07 10:20:37;;;;;;;5.82;3.55;;;23.50;51.20;;;;;;5028329;28;20066;-70
2022/08/07 10:23:38;;;;;;;6.30;3.75;;;23.60;49.50;;;;;;5018874;28;20057;-70
2022/08/07 10:26:35;;;;;;;5.15;3.42;;;22.70;52.30;;;;;;5023703;28;20036;-70
2022/08/07 10:29:29;;;;;;;4.72;3.05;;;23.00;48.10;;;;;;5029222;28;20034;-70
2022/08/07 10:32:31;;;;;;;5.10;3.08;;;23.30;48.20;;;;;;5027841;28;20705;-70
2022/08/07 10:35:26;;;;;;;5.47;3.55;;;23.40;48.90;;;;;;5016305;28;20025;-70
2022/08/07 10:38:23;;;;;;;4.43;2.97;;;23.80;47.20;;;;;;5030664;28;20128;-70
2022/08/07 10:40:57;;;;;;;5.57;3.10;;;23.80;47.90;;;;;;5030642;28;20497;-70
2022/08/07 10:43:29;;;;;;;4.50;2.78;;;23.60;47.60;;;;;;5027838;28;20041;-70
2022/08/07 10:45:59;;;;;;;4.20;2.65;;;22.90;48.60;;;;;;5029044;28;20029;-70
2022/08/07 10:48:52;;;;;;;7.18;3.22;;;22.50;48.40;;;;;;5029556;28;20075;-70
2022/08/07 10:51:37;;;;;;;5.65;2.53;;;22.30;49.00;;;;;;5030277;28;20030;-69
2022/08/07 10:54:36;;;;;;;5.20;2.97;;;21.60;50.50;;;;;;5034087;28;20088;-70
2022/08/07 10:57:10;;;;;;;5.75;2.90;;;21.50;51.90;;;;;;5022690;28;20087;-70
2022/08/07 11:00:03;;;;;;;4.60;2.90;;;21.50;50.10;;;;;;5030596;28;20029;-69
2022/08/07 11:03:00;;;;;;;6.20;3.40;;;21.20;52.10;;;;;;5028227;28;20045;-69
2022/08/07 11:05:41;;;;;;;4.95;2.50;;;21.30;52.20;;;;;;5029913;28;20030;-70
2022/08/07 11:08:27;;;;;;;5.93;3.00;;;22.30;50.80;;;;;;5029953;28;20029;-70
2022/08/07 11:11:04;;;;;;;5.35;2.65;;;23.00;49.60;;;;;;5024970;28;20033;-70
2022/08/07 11:13:45;;;;;;;5.53;2.80;;;23.20;46.30;;;;;;5027616;28;20028;-70
2022/08/07 11:16:19;;;;;;;5.40;2.97;;;23.40;44.90;;;;;;5028402;28;20029;-70
2022/08/07 11:19:01;;;;;;;7.13;2.72;;;23.50;44.80;;;;;;5026873;28;20029;-70
2022/08/07 11:21:41;;;;;;;3.75;2.40;;;24.50;46.00;;;;;;5030314;28;20071;-70
2022/08/07 11:24:19;;;;;;;4.00;2.22;;;24.80;42.80;;;;;;5030804;28;20061;-70
2022/08/07 11:27:01;;;;;;;4.13;2.65;;;25.00;41.30;;;;;;5030270;28;20022;-70
2022/08/07 11:29:38;;;;;;;4.78;3.00;;;24.60;41.90;;;;;;5023069;28;20025;-70
2022/08/07 11:32:10;;;;;;;3.78;2.47;;;24.60;44.30;;;;;;5027218;28;20021;-70
2022/08/07 11:34:56;;;;;;;3.60;2.28;;;24.30;44.20;;;;;;5027939;28;20052;-70
2022/08/07 11:37:44;;;;;;;4.30;2.53;;;24.10;43.30;;;;;;5030768;28;20627;-70
2022/08/07 11:40:24;;;;;;;3.78;2.47;;;24.40;44.10;;;;;;5030606;28;20033;-70
2022/08/07 11:43:16;;;;;;;;;;;24.00;46.00;;;;;;5028873;28;20025;-70
2022/08/07 11:46:08;;;;;;;3.85;2.40;;;23.20;44.40;;;;;;5006820;28;19925;-70
2022/08/07 11:48:46;;;;;;;4.45;2.55;;;22.50;46.30;;;;;;5011703;28;20041;-70
2022/08/07 11:51:32;;;;;;;4.40;2.60;;;23.70;45.40;;;;;;5028040;28;20037;-70
2022/08/07 11:54:16;;;;;;;5.40;2.63;;;24.00;44.00;;;;;;5028427;28;20062;-70
2022/08/07 11:57:01;;;;;;;5.00;2.53;;;23.70;43.70;;;;;;5025272;28;20033;-70
2022/08/07 11:59:54;;;;;;;4.28;2.88;;;23.10;44.70;;;;;;5027863;28;20033;-70
2022/08/07 12:02:48;;;;;;;4.10;2.40;;;22.90;45.50;;;;;;5028859;28;20074;-70
2022/08/07 12:05:38;;;;;;;5.47;2.72;;;24.10;46.30;;;;;;5019956;28;20079;-70
2022/08/07 12:08:27;;;;;;;6.75;2.70;;;24.90;43.00;;;;;;5022700;28;20044;-70
2022/08/07 12:10:57;;;;;;;3.88;2.40;;;24.50;42.10;;;;;;5027868;28;20029;-70
2022/08/07 12:13:45;;;;;;;4.50;2.42;;;25.40;40.50;;;;;;5027451;28;20020;-70
2022/08/07 12:16:16;;;;;;;3.08;2.20;;;25.70;42.10;;;;;;5029042;28;20083;-70
2022/08/07 12:18:56;;;;;;;3.08;2.20;;;25.50;42.10;;;;;;5027492;28;20105;-70
2022/08/07 12:21:43;;;;;;;4.00;2.08;;;24.40;41.60;;;;;;5028877;28;20036;-70
2022/08/07 12:24:24;;;;;;;5.38;2.53;;;25.60;40.30;;;;;;5029397;28;20040;-70
2022/08/07 12:27:04;;;;;;;3.47;2.30;;;25.70;41.90;;;;;;5027287;28;20363;-71
2022/08/07 12:29:50;;;;;;;4.45;2.28;;;26.70;40.00;;;;;;5029969;28;20022;-70
2022/08/07 12:32:32;;;;;;;4.15;1.95;;;26.50;36.90;;;;;;5026667;28;20419;-70
2022/08/07 12:35:03;;;;;;;4.90;2.33;;;26.50;35.90;;;;;;5023722;28;20084;-70
2022/08/07 12:37:29;;;;;;;4.70;2.00;;;26.80;38.40;;;;;;5018582;28;20513;-70
2022/08/07 12:39:57;;;;;;;4.70;1.65;;;27.60;36.70;;;;;;5028199;28;20068;-70
2022/08/07 12:42:27;;;;;;;4.72;2.45;;;28.20;34.60;;;;;;5027802;28;20021;-70
2022/08/07 12:44:54;;;;;;;;;;;28.50;35.40;;;;;;5028751;28;20393;-70
2022/08/07 12:47:41;;;;;;;4.32;2.30;;;28.10;34.70;;;;;;5025711;28;19919;-70
2022/08/07 12:50:14;;;;;;;3.85;1.90;;;28.00;35.10;;;;;;5027377;28;20092;-70
2022/08/07 12:53:10;;;;;;;3.70;2.22;;;27.70;35.30;;;;;;5018524;28;20025;-70
2022/08/07 12:55:44;;;;;;;2.80;1.80;;;27.50;36.80;;;;;;5016208;28;20037;-70
2022/08/07 12:58:14;;;;;;;3.92;1.90;;;27.90;35.90;;;;;;5018000;28;20088;-70
2022/08/07 13:00:53;;;;;;;5.40;2.58;;;28.20;36.00;;;;;;5013978;28;20611;-69
2022/08/07 13:03:50;;;;;;;3.95;1.92;;;28.50;34.50;;;;;;5023235;28;20428;-70
2022/08/07 13:06:43;;;;;;;3.17;2.05;;;28.90;34.00;;;;;;5023982;28;20121;-70
2022/08/07 13:09:50;;;;;;;4.53;2.40;;;28.50;35.30;;;;;;5020687;28;20029;-70
2022/08/07 13:12:34;;;;;;;5.10;2.38;;;28.50;35.20;;;;;;5020330;28;20120;-70
2022/08/07 13:15:35;;;;;;;4.20;1.67;;;28.30;36.50;;;;;;5023743;28;20044;-70
2022/08/07 13:18:15;;;;;;;4.72;2.15;;;27.00;35.30;;;;;;5023910;28;20033;-70
2022/08/07 13:20:45;;;;;;;3.92;2.17;;;26.80;35.20;;;;;;5022038;28;20078;-70
2022/08/07 13:23:14;;;;;;;;;;;25.80;37.90;;;;;;5024136;28;20034;-70